Time;durP1;ratioP1;P1;durP2;ratioP2;P2;SDS_P1;SDS_P2;PMS_P1;PMS_P2;Temp;Humidity;BMP_temperature;BMP_pressure;BME280_temperature;BME280_humidity;BME280_pressure;Samples;Min_cycle;Max_cycle;Signal;HPM_P1;HPM_P2
2021/12/31 19:51:45;;;;;;;24.63;9.00;;;;;;;19.17;48.13;100025.00;1592026;27;15194614;-66
2021/12/31 19:52:58;;;;;;;16.23;9.50;;;;;;;19.28;47.37;100016.16;2116293;27;20644;-68
2021/12/31 19:54:03;;;;;;;21.50;9.98;;;;;;;19.26;47.67;100027.50;2109319;28;20538;-69
2021/12/31 19:55:16;;;;;;;18.42;9.27;;;;;;;19.24;47.44;100021.59;2107440;27;20181;-68
2021/12/31 19:56:22;;;;;;;17.38;10.10;;;;;;;19.22;47.83;100023.88;2117617;27;20042;-69
2021/12/31 19:58:51;;;;;;;19.75;9.10;;;;;;;19.20;47.72;100028.97;2118402;27;20062;-69
2021/12/31 20:00:01;;;;;;;14.02;9.65;;;;;;;19.22;47.44;100029.38;2108339;28;20067;-68
2021/12/31 20:01:16;;;;;;;23.63;9.23;;;;;;;19.24;47.33;100032.53;2112517;27;20059;-69
2021/12/31 20:02:25;;;;;;;15.38;9.90;;;;;;;19.25;47.43;100034.09;2118627;27;20051;-69
2021/12/31 20:03:30;;;;;;;17.67;9.88;;;;;;;19.26;47.48;100030.22;2117812;27;20051;-70
2021/12/31 20:04:32;;;;;;;14.90;8.93;;;;;;;19.27;47.14;100037.28;2108736;27;20052;-69
2021/12/31 20:05:38;;;;;;;17.58;10.82;;;;;;;19.29;47.49;100039.63;2109359;27;20051;-69
2021/12/31 20:06:49;;;;;;;14.05;9.15;;;;;;;19.32;47.28;100033.41;2116936;27;20039;-68
2021/12/31 20:07:53;;;;;;;17.52;9.50;;;;;;;19.31;47.13;100040.84;2118441;27;20403;-68
2021/12/31 20:10:18;;;;;;;16.10;10.60;;;;;;;19.40;47.05;100040.56;2116478;27;20950;-68
2021/12/31 20:11:24;;;;;;;17.08;8.85;;;;;;;19.42;46.81;100039.06;2115713;27;20047;-66
2021/12/31 20:12:44;;;;;;;16.92;9.30;;;;;;;19.46;46.77;100046.53;2116483;27;20194;-69
2021/12/31 20:14:20;;;;;;;13.82;8.75;;;;;;;19.49;46.92;100045.78;2116258;27;20055;-67
2021/12/31 20:15:31;;;;;;;14.02;8.65;;;;;;;19.54;46.70;100045.44;2113190;27;20051;-67
2021/12/31 20:16:37;;;;;;;13.25;8.98;;;;;;;19.57;46.36;100044.69;2115398;27;20051;-64
2021/12/31 20:17:42;;;;;;;12.98;8.50;;;;;;;19.56;46.22;100038.44;2115348;27;20055;-64
2021/12/31 20:18:48;;;;;;;16.63;8.90;;;;;;;19.60;46.56;100035.72;2112121;27;20062;-65
2021/12/31 20:19:58;;;;;;;13.07;8.25;;;;;;;19.61;46.46;100035.38;2114873;27;20494;-67
2021/12/31 20:21:10;;;;;;;15.20;8.60;;;;;;;19.66;46.39;100032.28;2114319;27;20367;-65
2021/12/31 20:22:15;;;;;;;12.23;7.75;;;;;;;19.69;46.27;100036.25;2115499;27;20051;-64
2021/12/31 20:23:20;;;;;;;13.75;8.20;;;;;;;19.71;46.28;100036.66;2112519;27;20051;-67
2021/12/31 20:24:26;;;;;;;12.85;7.88;;;;;;;19.73;46.06;100037.09;2113899;27;20043;-65
2021/12/31 20:25:34;;;;;;;11.60;7.68;;;;;;;19.73;45.67;100037.09;2115317;27;20059;-65
2021/12/31 20:28:23;;;;;;;10.52;6.10;;;;;;;18.96;42.13;100050.09;2114541;27;20051;-66
2021/12/31 20:29:31;;;;;;;11.35;7.05;;;;;;;18.96;44.67;100049.31;2114489;27;20051;-67
2021/12/31 20:30:37;;;;;;;10.65;7.25;;;;;;;18.98;45.62;100056.00;2114964;27;20051;-65
2021/12/31 20:31:44;;;;;;;11.48;7.53;;;;;;;19.02;45.93;100055.25;2114947;27;20692;-67
2021/12/31 20:32:48;;;;;;;13.35;7.97;;;;;;;19.10;45.95;100059.66;2115322;27;20664;-66
2021/12/31 20:33:52;;;;;;;10.90;7.60;;;;;;;19.15;45.88;100060.16;2112081;27;20056;-65
2021/12/31 20:34:55;;;;;;;12.18;8.13;;;;;;;19.20;45.80;100068.09;2114543;27;20051;-65
2021/12/31 20:37:36;;;;;;;11.98;7.50;;;;;;;19.32;45.67;100061.63;2113213;27;20051;-65
2021/12/31 20:40:11;;;;;;;14.43;7.60;;;;;;;19.43;45.77;100068.00;2111815;27;20548;-63
2021/12/31 20:41:34;;;;;;;13.23;7.18;;;;;;;19.48;45.83;100063.34;2107242;27;20066;-63
2021/12/31 20:42:38;;;;;;;16.35;7.15;;;;;;;19.53;45.86;100060.31;2113768;27;20082;-64
2021/12/31 20:43:44;;;;;;;13.88;6.95;;;;;;;19.59;45.62;100064.31;2115558;27;20741;-63
2021/12/31 20:44:53;;;;;;;10.05;6.45;;;;;;;19.58;45.47;100057.25;2114484;27;20506;-63
2021/12/31 20:46:00;;;;;;;11.20;7.15;;;;;;;19.65;45.60;100060.06;2114627;27;20059;-66
2021/12/31 20:47:06;;;;;;;10.70;7.10;;;;;;;19.69;45.63;100069.13;2112146;27;20062;-62
2021/12/31 20:48:11;;;;;;;9.55;6.40;;;;;;;19.73;45.74;100067.25;2114573;27;20047;-62
2021/12/31 20:49:20;;;;;;;12.13;6.57;;;;;;;19.76;45.72;100063.75;2115175;27;20073;-64
2021/12/31 20:50:24;;;;;;;8.65;6.45;;;;;;;19.79;45.49;100064.94;2117554;27;20039;-66
2021/12/31 20:51:36;;;;;;;17.40;7.25;;;;;;;19.81;45.38;100066.16;2114369;27;21416;-65
2021/12/31 20:52:41;;;;;;;10.68;7.10;;;;;;;19.85;45.47;100064.22;2115848;27;20050;-64
2021/12/31 20:55:11;;;;;;;11.07;7.03;;;;;;;19.93;45.25;100067.06;2113804;27;20063;-70
2021/12/31 20:57:39;;;;;;;12.65;7.43;;;;;;;19.80;44.21;100074.75;2116148;27;20132;-65
2021/12/31 20:58:44;;;;;;;13.60;5.68;;;;;;;19.80;45.09;100075.53;2114249;27;20051;-65
2021/12/31 20:59:48;;;;;;;12.55;6.72;;;;;;;19.83;45.02;100088.50;2113761;27;20513;-66
2021/12/31 21:00:55;;;;;;;10.40;6.28;;;;;;;19.83;45.17;100079.50;2116259;27;20568;-65
2021/12/31 21:01:58;;;;;;;15.50;6.30;;;;;;;19.85;45.01;100083.41;2111217;27;20035;-62
2021/12/31 21:03:06;;;;;;;9.85;6.30;;;;;;;19.88;45.19;100082.66;2107819;27;20054;-63
2021/12/31 21:04:11;;;;;;;11.77;5.88;;;;;;;19.89;45.12;100083.47;2107361;27;20795;-63
2021/12/31 21:06:36;;;;;;;9.03;5.90;;;;;;;19.91;45.36;100084.66;2108781;27;20055;-62
2021/12/31 21:07:48;;;;;;;13.02;5.88;;;;;;;19.94;45.42;100091.38;2107533;27;20651;-65
2021/12/31 21:09:08;;;;;;;15.73;5.72;;;;;;;19.98;45.32;100091.44;2107881;27;20059;-64
2021/12/31 21:10:15;;;;;;;7.20;5.10;;;;;;;19.99;45.25;100095.78;2107907;27;20082;-63
2021/12/31 21:11:21;;;;;;;12.95;5.70;;;;;;;20.01;45.06;100093.41;2108965;27;20051;-63
2021/12/31 21:12:24;;;;;;;7.45;5.38;;;;;;;20.00;45.06;100106.34;2107104;27;20750;-63
2021/12/31 21:13:29;;;;;;;9.23;4.90;;;;;;;20.02;45.24;100100.50;2107457;27;20047;-63
2021/12/31 21:14:32;;;;;;;9.25;5.90;;;;;;;20.03;45.11;100093.84;2108210;27;20720;-62
2021/12/31 21:15:40;;;;;;;8.00;5.63;;;;;;;20.01;45.32;100102.44;2108374;27;20058;-62
2021/12/31 21:16:47;;;;;;;9.20;5.30;;;;;;;20.02;45.08;100109.50;2106694;27;20055;-61
2021/12/31 21:17:54;;;;;;;7.20;5.20;;;;;;;20.03;45.42;100111.09;2109295;27;20062;-62
2021/12/31 21:18:57;;;;;;;6.53;5.20;;;;;;;19.97;45.06;100101.59;2108049;27;20533;-62
2021/12/31 21:20:01;;;;;;;8.88;5.07;;;;;;;20.04;45.44;100120.09;2098132;28;20039;-65
2021/12/31 21:21:05;;;;;;;7.47;5.05;;;;;;;20.04;45.21;100122.84;2108065;27;20060;-61
2021/12/31 21:23:32;;;;;;;7.88;5.93;;;;;;;20.04;45.17;100123.63;2106070;27;20070;-63
2021/12/31 21:24:42;;;;;;;7.60;5.80;;;;;;;20.06;45.19;100120.53;2105918;27;20481;-62
2021/12/31 21:27:05;;;;;;;9.48;5.70;;;;;;;20.08;45.05;100112.72;2108147;27;21640;-60
2021/12/31 21:28:11;;;;;;;8.75;5.90;;;;;;;20.08;44.96;100119.00;2107271;27;20657;-61
2021/12/31 21:29:15;;;;;;;13.18;5.68;;;;;;;20.04;44.88;100117.34;2107388;27;20047;-62
2021/12/31 21:30:24;;;;;;;7.07;5.40;;;;;;;20.01;44.92;100112.63;2108022;27;20055;-63
2021/12/31 21:31:31;;;;;;;8.65;5.13;;;;;;;20.09;44.91;100117.03;2108781;27;20060;-66
2021/12/31 21:32:36;;;;;;;154.77;54.63;;;;;;;20.10;44.92;100127.63;2107688;27;20866;-70
2021/12/31 21:33:46;;;;;;;158.13;61.63;;;;;;;20.15;44.99;100128.47;2107160;27;20059;-70
2021/12/31 21:34:51;;;;;;;186.77;67.18;;;;;;;20.12;44.59;100130.00;2107412;27;20048;-71
2021/12/31 21:35:57;;;;;;;142.98;57.45;;;;;;;20.12;44.56;100130.00;2105752;27;20055;-71
2021/12/31 21:37:06;;;;;;;135.70;50.13;;;;;;;20.07;44.09;100128.34;2106108;27;20059;-71
2021/12/31 21:38:14;;;;;;;192.93;50.42;;;;;;;20.05;44.33;100124.44;2106188;27;20066;-67
2021/12/31 21:39:22;;;;;;;117.10;43.53;;;;;;;20.01;44.11;100123.59;2105167;27;20054;-70
2021/12/31 21:40:27;;;;;;;107.72;40.90;;;;;;;19.84;43.71;100114.75;2106370;27;20281;-69
2021/12/31 21:41:33;;;;;;;103.40;39.83;;;;;;;19.86;43.90;100130.84;2106216;27;20048;-69
2021/12/31 21:42:41;;;;;;;110.80;40.28;;;;;;;19.83;44.08;100126.09;2106068;27;20693;-67
2021/12/31 21:43:49;;;;;;;93.03;36.33;;;;;;;19.83;43.95;100126.88;2106325;27;20066;-68
2021/12/31 21:44:56;;;;;;;95.25;36.22;;;;;;;19.83;44.15;100121.41;2107055;27;20047;-68
2021/12/31 21:47:22;;;;;;;82.90;33.80;;;;;;;19.79;44.04;100115.09;2106917;27;20062;-67
2021/12/31 21:48:27;;;;;;;73.82;30.80;;;;;;;19.76;43.69;100107.59;2108227;27;20051;-68
2021/12/31 21:49:32;;;;;;;82.85;32.58;;;;;;;19.76;43.88;100120.50;2106798;27;20047;-68
2021/12/31 21:50:41;;;;;;;71.00;28.88;;;;;;;19.74;44.06;100120.88;2103831;27;20062;-67
2021/12/31 21:51:47;;;;;;;73.15;29.20;;;;;;;19.74;44.12;100123.63;2091614;28;20048;-67
2021/12/31 21:52:54;;;;;;;61.22;26.27;;;;;;;19.73;44.10;100113.84;2088065;28;20272;-67
2021/12/31 21:54:04;;;;;;;54.88;24.80;;;;;;;19.77;43.87;100116.63;2090510;28;20056;-68
2021/12/31 21:55:24;;;;;;;66.53;24.75;;;;;;;19.76;44.05;100120.50;2092058;28;20043;-68
2021/12/31 21:56:46;;;;;;;53.83;22.52;;;;;;;19.75;43.77;100122.44;2088290;28;20139;-68
2021/12/31 21:57:56;;;;;;;52.67;22.52;;;;;;;19.73;43.35;100119.31;2088207;28;20048;-68
2021/12/31 21:59:04;;;;;;;50.15;22.17;;;;;;;19.75;43.70;100116.97;2089575;28;20068;-68
2021/12/31 22:00:22;;;;;;;58.67;22.98;;;;;;;19.76;43.71;100121.31;2096517;28;20062;-68
2021/12/31 22:01:28;;;;;;;44.15;19.83;;;;;;;19.70;43.68;100108.28;2094733;28;20052;-68
2021/12/31 22:02:36;;;;;;;42.08;19.05;;;;;;;19.75;43.50;100119.72;2090469;28;20048;-67
2021/12/31 22:03:42;;;;;;;45.22;19.02;;;;;;;19.77;43.51;100120.13;2090314;28;20734;-68
2021/12/31 22:04:48;;;;;;;41.78;18.50;;;;;;;19.78;43.69;100121.72;2079577;28;20064;-70
2021/12/31 22:05:58;;;;;;;45.60;19.42;;;;;;;19.77;43.68;100113.88;2090588;28;20732;-67
2021/12/31 22:07:08;;;;;;;44.70;18.73;;;;;;;19.79;43.73;100127.97;2089785;28;20801;-67
2021/12/31 22:08:14;;;;;;;39.30;16.25;;;;;;;19.78;43.69;100121.72;2087511;28;20056;-66
2021/12/31 22:09:23;;;;;;;36.78;16.35;;;;;;;19.78;43.65;100121.72;2090867;28;20048;-67
2021/12/31 22:10:34;;;;;;;42.15;18.30;;;;;;;19.79;43.77;100117.81;2092643;28;20056;-67
2021/12/31 22:11:38;;;;;;;35.20;15.35;;;;;;;19.80;43.73;100129.56;2091057;28;20063;-67
2021/12/31 22:12:41;;;;;;;36.17;16.35;;;;;;;19.81;43.61;100126.44;2091268;28;20074;-67
2021/12/31 22:13:46;;;;;;;31.70;14.80;;;;;;;19.76;43.62;100112.28;2092096;28;20040;-67
2021/12/31 22:14:53;;;;;;;32.75;14.23;;;;;;;19.80;43.49;100122.13;2088808;28;20068;-67
2021/12/31 22:15:58;;;;;;;29.10;14.73;;;;;;;19.80;43.52;100127.63;2092151;28;20534;-67
2021/12/31 22:17:04;;;;;;;31.13;13.98;;;;;;;19.78;43.43;100113.47;2091258;28;20059;-66
2021/12/31 22:18:09;;;;;;;31.75;13.52;;;;;;;19.67;43.34;100101.59;2091475;28;20043;-67
2021/12/31 22:19:15;;;;;;;26.90;13.05;;;;;;;19.75;43.24;100114.22;2091009;28;20059;-67
2021/12/31 22:20:20;;;;;;;33.30;14.23;;;;;;;19.79;43.55;100122.50;2091279;28;20056;-66
2021/12/31 22:21:24;;;;;;;30.33;13.55;;;;;;;19.78;43.54;100127.19;2092179;28;20520;-67
2021/12/31 22:22:30;;;;;;;30.90;13.50;;;;;;;19.78;43.63;100129.16;2092280;28;20464;-67
2021/12/31 22:23:36;;;;;;;28.15;12.77;;;;;;;19.81;43.57;100125.66;2091843;28;20049;-66
2021/12/31 22:24:44;;;;;;;31.27;13.07;;;;;;;19.82;43.49;100132.72;2091576;28;20143;-66
2021/12/31 22:25:51;;;;;;;28.00;12.40;;;;;;;19.84;43.38;100131.19;2098068;28;20059;-67
2021/12/31 22:26:58;;;;;;;23.73;12.18;;;;;;;19.83;43.33;100135.09;2092944;28;20052;-66
2021/12/31 22:28:03;;;;;;;24.98;11.50;;;;;;;19.83;43.40;100139.78;2091576;28;20052;-66
2021/12/31 22:29:10;;;;;;;25.30;11.52;;;;;;;19.82;43.50;100138.19;2092027;28;20071;-67
2021/12/31 22:30:13;;;;;;;24.70;10.80;;;;;;;19.84;43.39;100147.63;2092069;28;20408;-67
2021/12/31 22:31:18;;;;;;;24.02;11.75;;;;;;;19.85;43.43;100153.91;2093002;28;20059;-67
2021/12/31 22:32:22;;;;;;;27.30;11.43;;;;;;;19.84;43.24;100147.63;2093213;28;20095;-66
2021/12/31 22:33:26;;;;;;;24.13;10.43;;;;;;;19.82;43.35;100154.63;2091150;28;20152;-67
2021/12/31 22:34:30;;;;;;;24.15;10.82;;;;;;;19.81;43.11;100164.03;2091586;28;20069;-67
2021/12/31 22:35:35;;;;;;;23.25;9.88;;;;;;;19.81;43.32;100164.03;2092064;28;20052;-67
2021/12/31 22:36:41;;;;;;;24.27;10.50;;;;;;;19.82;43.36;100160.13;2098865;28;20078;-67
2021/12/31 22:37:45;;;;;;;21.35;10.38;;;;;;;19.83;43.34;100156.25;2095876;28;20067;-68
2021/12/31 22:38:50;;;;;;;22.27;10.77;;;;;;;19.84;43.21;100158.59;2094698;28;20204;-66
2021/12/31 22:39:54;;;;;;;23.63;9.50;;;;;;;19.85;43.32;100168.38;2097690;28;20594;-66
2021/12/31 22:43:37;;;;;;;18.40;10.02;;;;;;;19.81;43.42;100169.53;2098626;28;20059;-67
2021/12/31 22:44:40;;;;;;;19.20;9.85;;;;;;;19.78;43.20;100160.09;2092176;28;20511;-67
2021/12/31 22:45:45;;;;;;;18.02;8.95;;;;;;;19.80;43.29;100171.47;2092545;28;20813;-67
2021/12/31 22:46:50;;;;;;;19.65;9.60;;;;;;;19.79;43.27;100172.66;2092346;28;20272;-66
2021/12/31 22:47:54;;;;;;;23.15;9.60;;;;;;;19.79;43.31;100172.66;2091962;28;20053;-66
2021/12/31 22:48:59;;;;;;;18.50;9.63;;;;;;;19.78;43.35;100175.75;2093349;28;20057;-67
2021/12/31 22:50:03;;;;;;;16.92;9.15;;;;;;;19.78;43.59;100173.00;2099664;28;20052;-67
2021/12/31 22:51:08;;;;;;;22.00;9.60;;;;;;;19.80;43.80;100178.91;2104961;27;20052;-68
2021/12/31 22:52:14;;;;;;;15.23;8.82;;;;;;;19.80;43.48;100176.97;2109201;28;20044;-67
2021/12/31 22:53:20;;;;;;;15.45;7.72;;;;;;;19.81;43.35;100169.53;2106366;28;20954;-68
2021/12/31 22:54:25;;;;;;;15.18;8.00;;;;;;;19.78;43.24;100171.03;2113211;27;20061;-68
2021/12/31 22:55:28;;;;;;;14.30;7.78;;;;;;;19.80;43.34;100173.44;2116145;27;20039;-68
2021/12/31 22:56:36;;;;;;;13.95;7.22;;;;;;;19.80;43.19;100168.72;2110169;27;20059;-67
2021/12/31 22:57:43;;;;;;;15.68;8.18;;;;;;;19.83;43.18;100178.97;2110387;27;20047;-68
2021/12/31 22:58:48;;;;;;;13.43;6.53;;;;;;;19.30;40.23;100173.47;2116692;27;20767;-66
2021/12/31 22:59:54;;;;;;;13.02;6.93;;;;;;;18.75;43.01;100179.16;2116445;27;20047;-68
2021/12/31 23:01:13;;;;;;;21.85;7.47;;;;;;;18.80;43.80;100183.53;2109674;27;20064;-75
2021/12/31 23:02:19;;;;;;;22.55;11.30;;;;;;;18.80;44.14;100194.47;2112474;27;20054;-67
2021/12/31 23:03:24;;;;;;;25.25;13.38;;;;;;;18.85;44.23;100191.47;2108208;27;20055;-67
2021/12/31 23:04:29;;;;;;;32.92;16.77;;;;;;;18.85;44.26;100188.72;2109193;27;20058;-67
2021/12/31 23:05:38;;;;;;;36.88;20.52;;;;;;;18.40;41.25;100192.94;2109019;27;20059;-65
2021/12/31 23:06:45;;;;;;;28.05;17.15;;;;;;;17.37;43.26;100194.16;2108098;28;20063;-69
2021/12/31 23:07:51;;;;;;;30.83;15.15;;;;;;;17.68;45.08;100198.00;2109147;27;20062;-70
2021/12/31 23:08:56;;;;;;;44.03;15.27;;;;;;;17.87;45.66;100202.72;2108159;28;20084;-72
2021/12/31 23:09:59;;;;;;;34.10;16.30;;;;;;;18.09;45.03;100198.50;2113507;27;20563;-66
2021/12/31 23:11:05;;;;;;;34.45;17.17;;;;;;;18.20;45.11;100202.28;2114418;27;20047;-65
2021/12/31 23:12:16;;;;;;;32.85;16.92;;;;;;;18.34;45.03;100205.28;2111852;27;20055;-66
2021/12/31 23:13:23;;;;;;;34.58;16.85;;;;;;;18.47;44.65;100198.56;2108325;27;20641;-63
2021/12/31 23:14:29;;;;;;;33.72;16.80;;;;;;;18.58;44.42;100204.22;2107009;27;20051;-65
2021/12/31 23:15:33;;;;;;;34.83;18.13;;;;;;;18.68;44.35;100192.69;2106938;28;20063;-66
2021/12/31 23:16:38;;;;;;;32.80;18.05;;;;;;;18.73;44.04;100197.09;2107435;28;20613;-66
2021/12/31 23:17:43;;;;;;;37.08;17.30;;;;;;;18.82;44.04;100200.41;2107974;28;20055;-67
2021/12/31 23:18:48;;;;;;;37.88;17.27;;;;;;;18.90;44.05;100191.16;2108367;28;20059;-67
2021/12/31 23:19:54;;;;;;;38.20;16.08;;;;;;;18.97;44.00;100199.50;2107348;28;20059;-68
2021/12/31 23:21:01;;;;;;;29.63;15.95;;;;;;;19.02;43.94;100192.91;2107916;28;20058;-68
2021/12/31 23:22:05;;;;;;;28.73;16.95;;;;;;;19.07;43.67;100194.56;2112394;27;20055;-67
2021/12/31 23:23:11;;;;;;;29.35;16.40;;;;;;;19.09;43.53;100200.47;2112341;27;20441;-67
2021/12/31 23:24:17;;;;;;;27.88;15.93;;;;;;;19.11;43.27;100206.38;2108351;27;20074;-65
2021/12/31 23:25:23;;;;;;;29.25;15.80;;;;;;;19.13;43.40;100195.81;2107649;27;20054;-65
2021/12/31 23:27:51;;;;;;;28.75;15.55;;;;;;;19.21;43.27;100197.56;2109096;28;20051;-63
2021/12/31 23:28:58;;;;;;;24.83;14.05;;;;;;;19.23;43.26;100200.75;2107174;28;20051;-64
2021/12/31 23:30:04;;;;;;;27.73;14.40;;;;;;;19.26;43.31;100202.75;2106664;28;20059;-64
2021/12/31 23:31:07;;;;;;;26.90;14.30;;;;;;;19.29;43.12;100204.75;2108208;28;20059;-64
2021/12/31 23:32:12;;;;;;;27.95;14.52;;;;;;;19.29;42.97;100199.28;2108580;28;20047;-65
2021/12/31 23:33:15;;;;;;;25.35;13.65;;;;;;;19.31;43.14;100213.38;2113066;27;20059;-65
2021/12/31 23:34:21;;;;;;;23.88;13.88;;;;;;;19.32;43.00;100209.50;2111536;27;20058;-65
2021/12/31 23:35:27;;;;;;;26.33;13.55;;;;;;;19.34;42.73;100207.19;2107451;28;20055;-65
2021/12/31 23:36:34;;;;;;;20.55;12.23;;;;;;;19.37;42.53;100213.88;2107545;28;20067;-65
2021/12/31 23:37:38;;;;;;;21.98;12.27;;;;;;;19.39;42.54;100209.63;2108583;27;20525;-65
2021/12/31 23:38:46;;;;;;;20.38;12.18;;;;;;;19.39;42.54;100222.53;2115371;27;20058;-65
2021/12/31 23:39:57;;;;;;;21.77;13.82;;;;;;;19.36;42.35;100224.03;2107694;27;20063;-66
2021/12/31 23:41:01;;;;;;;21.33;11.50;;;;;;;19.33;42.37;100211.06;2108111;28;20059;-66
2021/12/31 23:42:09;;;;;;;20.38;11.57;;;;;;;19.29;42.43;100212.16;2111143;28;20058;-66
2021/12/31 23:43:27;;;;;;;20.70;11.85;;;;;;;19.34;42.56;100222.81;2107930;28;20044;-66
2021/12/31 23:44:29;;;;;;;17.92;10.98;;;;;;;19.32;42.40;100228.69;2107053;28;20055;-66
2021/12/31 23:45:34;;;;;;;15.93;11.43;;;;;;;19.33;42.20;100213.81;2107949;28;20047;-67
2021/12/31 23:46:38;;;;;;;17.23;11.18;;;;;;;19.29;42.24;100210.25;2113576;27;20051;-65
2021/12/31 23:47:45;;;;;;;19.13;10.30;;;;;;;19.36;42.06;100232.25;2107652;28;20078;-67
2021/12/31 23:48:51;;;;;;;15.75;10.02;;;;;;;19.33;42.04;100235.72;2107594;28;20399;-66
2021/12/31 23:49:57;;;;;;;16.65;9.52;;;;;;;19.31;42.03;100232.56;2108632;28;20051;-66
2021/12/31 23:51:05;;;;;;;16.33;9.57;;;;;;;19.28;42.18;100241.50;2108669;28;20051;-66
2021/12/31 23:52:08;;;;;;;16.55;9.55;;;;;;;19.24;42.15;100240.66;2108771;28;20047;-66
2021/12/31 23:53:13;;;;;;;15.50;9.40;;;;;;;19.25;42.34;100239.50;2108082;28;20418;-67
2021/12/31 23:55:38;;;;;;;14.88;9.32;;;;;;;19.25;42.26;100236.75;2105577;28;20059;-66
2021/12/31 23:56:42;;;;;;;14.05;8.98;;;;;;;19.26;42.30;100243.84;2106016;28;20100;-66
2021/12/31 23:57:49;;;;;;;14.48;9.07;;;;;;;19.26;42.28;100246.56;2108443;28;20850;-66
2021/12/31 23:58:56;;;;;;;15.00;8.32;;;;;;;19.28;42.29;100248.94;2107597;28;20063;-66
